sensor_id;sensor_type;location;lat;lon;timestamp;P1;durP1;ratioP1;P2;durP2;ratioP2
13868;SDS011;7004;48.206;16.402;2023-08-12T00:00:47;4.17;;;3.77;;
13868;SDS011;7004;48.206;16.402;2023-08-12T00:03:13;9.00;;;3.77;;
13868;SDS011;7004;48.206;16.402;2023-08-12T00:05:39;6.30;;;4.30;;
13868;SDS011;7004;48.206;16.402;2023-08-12T00:08:06;5.57;;;4.27;;
13868;SDS011;7004;48.206;16.402;2023-08-12T00:10:32;4.53;;;3.57;;
13868;SDS011;7004;48.206;16.402;2023-08-12T00:12:59;3.97;;;3.57;;
13868;SDS011;7004;48.206;16.402;2023-08-12T00:15:25;4.87;;;4.20;;
13868;SDS011;7004;48.206;16.402;2023-08-12T00:17:52;4.50;;;3.80;;
13868;SDS011;7004;48.206;16.402;2023-08-12T00:20:18;4.30;;;3.90;;
13868;SDS011;7004;48.206;16.402;2023-08-12T00:22:44;6.50;;;4.00;;
13868;SDS011;7004;48.206;16.402;2023-08-12T00:25:11;5.00;;;4.60;;
13868;SDS011;7004;48.206;16.402;2023-08-12T00:27:37;5.57;;;4.30;;
13868;SDS011;7004;48.206;16.402;2023-08-12T00:30:04;5.93;;;4.00;;
13868;SDS011;7004;48.206;16.402;2023-08-12T00:32:33;4.40;;;4.00;;
13868;SDS011;7004;48.206;16.402;2023-08-12T00:35:00;6.83;;;4.10;;
13868;SDS011;7004;48.206;16.402;2023-08-12T00:37:26;7.03;;;4.53;;
13868;SDS011;7004;48.206;16.402;2023-08-12T00:39:52;4.00;;;3.60;;
13868;SDS011;7004;48.206;16.402;2023-08-12T00:42:18;5.33;;;4.20;;
13868;SDS011;7004;48.206;16.402;2023-08-12T00:44:44;5.40;;;3.83;;
13868;SDS011;7004;48.206;16.402;2023-08-12T00:47:10;4.50;;;4.07;;
13868;SDS011;7004;48.206;16.402;2023-08-12T00:49:36;4.63;;;4.10;;
13868;SDS011;7004;48.206;16.402;2023-08-12T00:52:05;5.77;;;4.67;;
13868;SDS011;7004;48.206;16.402;2023-08-12T00:54:31;4.20;;;3.80;;
13868;SDS011;7004;48.206;16.402;2023-08-12T00:56:58;5.80;;;4.10;;
13868;SDS011;7004;48.206;16.402;2023-08-12T00:59:24;4.17;;;3.53;;
13868;SDS011;7004;48.206;16.402;2023-08-12T01:01:51;5.80;;;3.80;;
13868;SDS011;7004;48.206;16.402;2023-08-12T01:04:17;4.10;;;3.70;;
13868;SDS011;7004;48.206;16.402;2023-08-12T01:06:43;7.07;;;3.80;;
13868;SDS011;7004;48.206;16.402;2023-08-12T01:09:10;4.37;;;3.70;;
13868;SDS011;7004;48.206;16.402;2023-08-12T01:11:51;5.20;;;3.80;;
13868;SDS011;7004;48.206;16.402;2023-08-12T01:14:42;4.43;;;4.03;;
13868;SDS011;7004;48.206;16.402;2023-08-12T01:17:16;4.17;;;3.87;;
13868;SDS011;7004;48.206;16.402;2023-08-12T01:19:43;5.37;;;4.10;;
13868;SDS011;7004;48.206;16.402;2023-08-12T01:22:11;5.27;;;3.83;;
13868;SDS011;7004;48.206;16.402;2023-08-12T01:24:42;4.40;;;4.00;;
13868;SDS011;7004;48.206;16.402;2023-08-12T01:27:10;5.60;;;3.70;;
13868;SDS011;7004;48.206;16.402;2023-08-12T01:29:41;4.40;;;4.00;;
13868;SDS011;7004;48.206;16.402;2023-08-12T01:32:29;4.33;;;3.93;;
13868;SDS011;7004;48.206;16.402;2023-08-12T01:38:26;6.80;;;4.30;;
13868;SDS011;7004;48.206;16.402;2023-08-12T01:40:53;5.87;;;4.10;;
13868;SDS011;7004;48.206;16.402;2023-08-12T01:43:20;5.53;;;4.10;;
13868;SDS011;7004;48.206;16.402;2023-08-12T01:45:46;5.07;;;3.87;;
13868;SDS011;7004;48.206;16.402;2023-08-12T01:48:13;6.00;;;4.20;;
13868;SDS011;7004;48.206;16.402;2023-08-12T01:50:39;4.97;;;4.53;;
13868;SDS011;7004;48.206;16.402;2023-08-12T01:53:12;5.83;;;3.83;;
13868;SDS011;7004;48.206;16.402;2023-08-12T01:55:39;4.47;;;4.07;;
13868;SDS011;7004;48.206;16.402;2023-08-12T01:58:09;4.57;;;4.13;;
13868;SDS011;7004;48.206;16.402;2023-08-12T02:00:35;6.13;;;4.30;;
13868;SDS011;7004;48.206;16.402;2023-08-12T02:03:02;5.70;;;3.70;;
13868;SDS011;7004;48.206;16.402;2023-08-12T02:05:29;6.67;;;4.27;;
13868;SDS011;7004;48.206;16.402;2023-08-12T02:07:55;5.53;;;4.30;;
13868;SDS011;7004;48.206;16.402;2023-08-12T02:10:21;6.13;;;4.27;;
13868;SDS011;7004;48.206;16.402;2023-08-12T02:12:48;6.17;;;4.07;;
13868;SDS011;7004;48.206;16.402;2023-08-12T02:15:14;4.50;;;4.10;;
13868;SDS011;7004;48.206;16.402;2023-08-12T02:17:40;4.77;;;4.03;;
13868;SDS011;7004;48.206;16.402;2023-08-12T02:20:07;5.73;;;4.13;;
13868;SDS011;7004;48.206;16.402;2023-08-12T02:22:34;5.20;;;4.03;;
13868;SDS011;7004;48.206;16.402;2023-08-12T02:25:00;5.20;;;4.07;;
13868;SDS011;7004;48.206;16.402;2023-08-12T02:27:26;4.40;;;4.00;;
13868;SDS011;7004;48.206;16.402;2023-08-12T02:29:53;6.73;;;4.23;;
13868;SDS011;7004;48.206;16.402;2023-08-12T02:32:19;5.63;;;4.07;;
13868;SDS011;7004;48.206;16.402;2023-08-12T02:34:45;4.00;;;3.60;;
13868;SDS011;7004;48.206;16.402;2023-08-12T02:37:13;4.97;;;4.40;;
13868;SDS011;7004;48.206;16.402;2023-08-12T02:39:40;5.27;;;4.77;;
13868;SDS011;7004;48.206;16.402;2023-08-12T02:42:06;6.27;;;3.87;;
13868;SDS011;7004;48.206;16.402;2023-08-12T02:44:32;6.43;;;4.80;;
13868;SDS011;7004;48.206;16.402;2023-08-12T02:46:58;5.13;;;4.40;;
13868;SDS011;7004;48.206;16.402;2023-08-12T02:49:24;5.60;;;4.77;;
13868;SDS011;7004;48.206;16.402;2023-08-12T02:51:50;5.97;;;4.57;;
13868;SDS011;7004;48.206;16.402;2023-08-12T02:54:16;5.43;;;4.50;;
13868;SDS011;7004;48.206;16.402;2023-08-12T02:56:42;6.67;;;4.50;;
13868;SDS011;7004;48.206;16.402;2023-08-12T02:59:09;4.90;;;4.40;;
13868;SDS011;7004;48.206;16.402;2023-08-12T03:01:35;7.13;;;4.30;;
13868;SDS011;7004;48.206;16.402;2023-08-12T03:04:01;4.60;;;4.10;;
13868;SDS011;7004;48.206;16.402;2023-08-12T03:06:27;5.37;;;4.90;;
13868;SDS011;7004;48.206;16.402;2023-08-12T03:08:53;6.63;;;4.70;;
13868;SDS011;7004;48.206;16.402;2023-08-12T03:11:20;5.23;;;4.63;;
13868;SDS011;7004;48.206;16.402;2023-08-12T03:13:46;5.97;;;4.77;;
13868;SDS011;7004;48.206;16.402;2023-08-12T03:16:12;6.23;;;4.87;;
13868;SDS011;7004;48.206;16.402;2023-08-12T03:18:40;5.70;;;4.87;;
13868;SDS011;7004;48.206;16.402;2023-08-12T03:21:07;5.73;;;4.80;;
13868;SDS011;7004;48.206;16.402;2023-08-12T03:23:37;5.20;;;4.70;;
13868;SDS011;7004;48.206;16.402;2023-08-12T03:26:04;7.00;;;5.10;;
13868;SDS011;7004;48.206;16.402;2023-08-12T03:28:30;5.20;;;4.67;;
13868;SDS011;7004;48.206;16.402;2023-08-12T03:30:56;5.17;;;4.67;;
13868;SDS011;7004;48.206;16.402;2023-08-12T03:33:23;5.37;;;4.77;;
13868;SDS011;7004;48.206;16.402;2023-08-12T03:35:49;5.23;;;4.70;;
13868;SDS011;7004;48.206;16.402;2023-08-12T03:38:15;5.67;;;4.70;;
13868;SDS011;7004;48.206;16.402;2023-08-12T03:40:41;6.83;;;4.40;;
13868;SDS011;7004;48.206;16.402;2023-08-12T03:43:08;6.77;;;5.17;;
13868;SDS011;7004;48.206;16.402;2023-08-12T03:45:40;5.17;;;4.67;;
13868;SDS011;7004;48.206;16.402;2023-08-12T03:48:07;5.30;;;4.80;;
13868;SDS011;7004;48.206;16.402;2023-08-12T03:50:34;5.10;;;4.60;;
13868;SDS011;7004;48.206;16.402;2023-08-12T03:53:04;7.23;;;5.03;;
13868;SDS011;7004;48.206;16.402;2023-08-12T03:55:31;5.90;;;5.23;;
13868;SDS011;7004;48.206;16.402;2023-08-12T03:58:00;5.27;;;4.77;;
13868;SDS011;7004;48.206;16.402;2023-08-12T04:00:27;5.43;;;4.93;;
13868;SDS011;7004;48.206;16.402;2023-08-12T04:02:53;6.37;;;5.43;;
13868;SDS011;7004;48.206;16.402;2023-08-12T04:05:19;6.27;;;5.40;;
13868;SDS011;7004;48.206;16.402;2023-08-12T04:07:46;6.47;;;5.47;;
13868;SDS011;7004;48.206;16.402;2023-08-12T04:10:12;5.90;;;5.00;;
13868;SDS011;7004;48.206;16.402;2023-08-12T04:12:39;5.60;;;4.97;;
13868;SDS011;7004;48.206;16.402;2023-08-12T04:15:07;6.10;;;5.47;;
13868;SDS011;7004;48.206;16.402;2023-08-12T04:17:36;5.87;;;5.27;;
13868;SDS011;7004;48.206;16.402;2023-08-12T04:20:02;5.70;;;5.20;;
13868;SDS011;7004;48.206;16.402;2023-08-12T04:22:31;5.83;;;5.23;;
13868;SDS011;7004;48.206;16.402;2023-08-12T04:24:57;6.07;;;5.47;;
13868;SDS011;7004;48.206;16.402;2023-08-12T04:27:24;6.77;;;5.97;;
13868;SDS011;7004;48.206;16.402;2023-08-12T04:29:50;8.00;;;5.50;;
13868;SDS011;7004;48.206;16.402;2023-08-12T04:32:16;6.00;;;5.40;;
13868;SDS011;7004;48.206;16.402;2023-08-12T04:34:42;6.63;;;5.57;;
13868;SDS011;7004;48.206;16.402;2023-08-12T04:37:08;7.17;;;5.80;;
13868;SDS011;7004;48.206;16.402;2023-08-12T04:39:34;6.53;;;5.83;;
13868;SDS011;7004;48.206;16.402;2023-08-12T04:42:00;6.30;;;5.70;;
13868;SDS011;7004;48.206;16.402;2023-08-12T04:44:26;5.87;;;5.23;;
13868;SDS011;7004;48.206;16.402;2023-08-12T04:46:52;7.57;;;5.30;;
13868;SDS011;7004;48.206;16.402;2023-08-12T04:49:20;6.77;;;5.10;;
13868;SDS011;7004;48.206;16.402;2023-08-12T04:51:46;5.83;;;5.23;;
13868;SDS011;7004;48.206;16.402;2023-08-12T04:54:12;5.77;;;5.27;;
13868;SDS011;7004;48.206;16.402;2023-08-12T04:56:39;8.27;;;5.60;;
13868;SDS011;7004;48.206;16.402;2023-08-12T04:59:13;6.73;;;5.43;;
13868;SDS011;7004;48.206;16.402;2023-08-12T05:01:39;5.47;;;4.77;;
13868;SDS011;7004;48.206;16.402;2023-08-12T05:04:05;5.57;;;4.60;;
13868;SDS011;7004;48.206;16.402;2023-08-12T05:06:31;5.20;;;4.70;;
13868;SDS011;7004;48.206;16.402;2023-08-12T05:08:57;5.97;;;5.37;;
13868;SDS011;7004;48.206;16.402;2023-08-12T05:11:23;7.77;;;5.50;;
13868;SDS011;7004;48.206;16.402;2023-08-12T05:13:49;5.80;;;5.30;;
13868;SDS011;7004;48.206;16.402;2023-08-12T05:16:16;6.00;;;5.40;;
13868;SDS011;7004;48.206;16.402;2023-08-12T05:18:42;6.30;;;4.90;;
13868;SDS011;7004;48.206;16.402;2023-08-12T05:21:08;5.97;;;5.40;;
13868;SDS011;7004;48.206;16.402;2023-08-12T05:23:34;6.30;;;5.57;;
13868;SDS011;7004;48.206;16.402;2023-08-12T05:26:00;6.00;;;5.23;;
13868;SDS011;7004;48.206;16.402;2023-08-12T05:28:26;7.10;;;5.57;;
13868;SDS011;7004;48.206;16.402;2023-08-12T05:30:52;7.37;;;5.47;;
13868;SDS011;7004;48.206;16.402;2023-08-12T05:33:20;5.93;;;5.33;;
13868;SDS011;7004;48.206;16.402;2023-08-12T05:35:47;6.90;;;5.90;;
13868;SDS011;7004;48.206;16.402;2023-08-12T05:38:14;5.60;;;5.10;;
13868;SDS011;7004;48.206;16.402;2023-08-12T05:40:40;8.23;;;6.67;;
13868;SDS011;7004;48.206;16.402;2023-08-12T05:43:07;7.20;;;6.50;;
13868;SDS011;7004;48.206;16.402;2023-08-12T05:45:33;8.50;;;6.97;;
13868;SDS011;7004;48.206;16.402;2023-08-12T05:47:59;11.30;;;6.50;;
13868;SDS011;7004;48.206;16.402;2023-08-12T05:50:25;6.70;;;5.97;;
13868;SDS011;7004;48.206;16.402;2023-08-12T05:52:52;6.83;;;6.03;;
13868;SDS011;7004;48.206;16.402;2023-08-12T05:55:18;7.07;;;6.37;;
13868;SDS011;7004;48.206;16.402;2023-08-12T05:57:44;7.10;;;6.30;;
13868;SDS011;7004;48.206;16.402;2023-08-12T06:00:10;7.13;;;6.23;;
13868;SDS011;7004;48.206;16.402;2023-08-12T06:02:37;9.40;;;6.43;;
13868;SDS011;7004;48.206;16.402;2023-08-12T06:05:03;7.37;;;6.67;;
13868;SDS011;7004;48.206;16.402;2023-08-12T06:07:30;6.27;;;5.67;;
13868;SDS011;7004;48.206;16.402;2023-08-12T06:09:56;6.17;;;5.57;;
13868;SDS011;7004;48.206;16.402;2023-08-12T06:12:22;8.67;;;6.17;;
13868;SDS011;7004;48.206;16.402;2023-08-12T06:14:48;8.20;;;6.53;;
13868;SDS011;7004;48.206;16.402;2023-08-12T06:17:14;8.60;;;6.17;;
13868;SDS011;7004;48.206;16.402;2023-08-12T06:19:41;8.53;;;6.60;;
13868;SDS011;7004;48.206;16.402;2023-08-12T06:22:07;7.73;;;6.07;;
13868;SDS011;7004;48.206;16.402;2023-08-12T06:24:33;7.90;;;7.10;;
13868;SDS011;7004;48.206;16.402;2023-08-12T06:26:59;6.70;;;6.00;;
13868;SDS011;7004;48.206;16.402;2023-08-12T06:29:25;6.33;;;5.73;;
13868;SDS011;7004;48.206;16.402;2023-08-12T06:31:52;7.50;;;6.80;;
13868;SDS011;7004;48.206;16.402;2023-08-12T06:34:18;7.17;;;6.47;;
13868;SDS011;7004;48.206;16.402;2023-08-12T06:36:44;7.37;;;6.57;;
13868;SDS011;7004;48.206;16.402;2023-08-12T06:39:10;6.63;;;5.93;;
13868;SDS011;7004;48.206;16.402;2023-08-12T06:41:36;6.93;;;5.80;;
13868;SDS011;7004;48.206;16.402;2023-08-12T06:44:03;13.47;;;7.50;;
13868;SDS011;7004;48.206;16.402;2023-08-12T06:46:29;8.87;;;7.80;;
13868;SDS011;7004;48.206;16.402;2023-08-12T06:48:56;9.93;;;8.17;;
13868;SDS011;7004;48.206;16.402;2023-08-12T06:51:24;8.67;;;7.77;;
13868;SDS011;7004;48.206;16.402;2023-08-12T06:53:50;8.63;;;7.77;;
13868;SDS011;7004;48.206;16.402;2023-08-12T06:56:16;8.00;;;7.20;;
13868;SDS011;7004;48.206;16.402;2023-08-12T06:58:43;9.40;;;7.33;;
13868;SDS011;7004;48.206;16.402;2023-08-12T07:01:09;7.97;;;6.53;;
13868;SDS011;7004;48.206;16.402;2023-08-12T07:03:35;7.33;;;6.63;;
13868;SDS011;7004;48.206;16.402;2023-08-12T07:06:01;6.40;;;5.83;;
13868;SDS011;7004;48.206;16.402;2023-08-12T07:08:27;6.70;;;6.03;;
13868;SDS011;7004;48.206;16.402;2023-08-12T07:10:53;7.00;;;6.17;;
13868;SDS011;7004;48.206;16.402;2023-08-12T07:13:19;7.20;;;6.50;;
13868;SDS011;7004;48.206;16.402;2023-08-12T07:15:46;7.53;;;6.70;;
13868;SDS011;7004;48.206;16.402;2023-08-12T07:18:12;10.13;;;6.07;;
13868;SDS011;7004;48.206;16.402;2023-08-12T07:20:38;7.90;;;6.20;;
13868;SDS011;7004;48.206;16.402;2023-08-12T07:23:04;7.47;;;5.97;;
13868;SDS011;7004;48.206;16.402;2023-08-12T07:25:30;7.87;;;6.37;;
13868;SDS011;7004;48.206;16.402;2023-08-12T07:27:57;6.60;;;6.00;;
13868;SDS011;7004;48.206;16.402;2023-08-12T07:30:23;8.40;;;5.97;;
13868;SDS011;7004;48.206;16.402;2023-08-12T07:32:50;6.87;;;5.33;;
13868;SDS011;7004;48.206;16.402;2023-08-12T07:35:16;5.57;;;4.87;;
13868;SDS011;7004;48.206;16.402;2023-08-12T07:37:42;5.10;;;4.70;;
13868;SDS011;7004;48.206;16.402;2023-08-12T07:40:08;6.93;;;4.97;;
13868;SDS011;7004;48.206;16.402;2023-08-12T07:42:35;7.70;;;5.00;;
13868;SDS011;7004;48.206;16.402;2023-08-12T07:45:01;5.30;;;4.80;;
13868;SDS011;7004;48.206;16.402;2023-08-12T07:47:28;7.00;;;4.87;;
13868;SDS011;7004;48.206;16.402;2023-08-12T07:49:54;6.10;;;4.73;;
13868;SDS011;7004;48.206;16.402;2023-08-12T07:52:21;6.13;;;4.67;;
13868;SDS011;7004;48.206;16.402;2023-08-12T07:54:46;5.20;;;4.70;;
13868;SDS011;7004;48.206;16.402;2023-08-12T07:57:13;5.63;;;4.57;;
13868;SDS011;7004;48.206;16.402;2023-08-12T07:59:39;4.67;;;4.27;;
13868;SDS011;7004;48.206;16.402;2023-08-12T08:02:05;7.13;;;5.43;;
13868;SDS011;7004;48.206;16.402;2023-08-12T08:04:31;5.40;;;4.90;;
13868;SDS011;7004;48.206;16.402;2023-08-12T08:06:59;6.47;;;4.60;;
13868;SDS011;7004;48.206;16.402;2023-08-12T08:09:26;4.70;;;4.20;;
13868;SDS011;7004;48.206;16.402;2023-08-12T08:11:52;5.03;;;4.43;;
13868;SDS011;7004;48.206;16.402;2023-08-12T08:14:18;4.97;;;4.57;;
13868;SDS011;7004;48.206;16.402;2023-08-12T08:16:45;4.87;;;4.20;;
13868;SDS011;7004;48.206;16.402;2023-08-12T08:19:17;3.87;;;3.57;;
13868;SDS011;7004;48.206;16.402;2023-08-12T08:21:43;4.70;;;4.30;;
13868;SDS011;7004;48.206;16.402;2023-08-12T08:24:10;4.60;;;4.20;;
13868;SDS011;7004;48.206;16.402;2023-08-12T08:26:38;5.10;;;4.60;;
13868;SDS011;7004;48.206;16.402;2023-08-12T08:29:05;5.70;;;3.97;;
13868;SDS011;7004;48.206;16.402;2023-08-12T08:31:32;4.80;;;4.40;;
13868;SDS011;7004;48.206;16.402;2023-08-12T08:33:59;5.40;;;4.90;;
13868;SDS011;7004;48.206;16.402;2023-08-12T08:36:25;5.07;;;4.50;;
13868;SDS011;7004;48.206;16.402;2023-08-12T08:38:51;5.67;;;4.73;;
13868;SDS011;7004;48.206;16.402;2023-08-12T08:41:17;4.77;;;4.30;;
13868;SDS011;7004;48.206;16.402;2023-08-12T08:43:44;5.50;;;5.00;;
13868;SDS011;7004;48.206;16.402;2023-08-12T08:46:16;5.10;;;4.70;;
13868;SDS011;7004;48.206;16.402;2023-08-12T08:48:43;5.30;;;4.77;;
13868;SDS011;7004;48.206;16.402;2023-08-12T08:51:12;5.20;;;4.77;;
13868;SDS011;7004;48.206;16.402;2023-08-12T08:53:39;8.30;;;5.90;;
13868;SDS011;7004;48.206;16.402;2023-08-12T08:56:06;5.80;;;4.90;;
13868;SDS011;7004;48.206;16.402;2023-08-12T08:58:37;5.83;;;5.33;;
13868;SDS011;7004;48.206;16.402;2023-08-12T09:01:05;5.83;;;5.23;;
13868;SDS011;7004;48.206;16.402;2023-08-12T09:03:37;6.57;;;5.47;;
13868;SDS011;7004;48.206;16.402;2023-08-12T09:06:06;6.13;;;5.60;;
13868;SDS011;7004;48.206;16.402;2023-08-12T09:08:32;7.23;;;5.20;;
13868;SDS011;7004;48.206;16.402;2023-08-12T09:11:00;6.30;;;5.30;;
13868;SDS011;7004;48.206;16.402;2023-08-12T09:13:28;5.60;;;5.10;;
13868;SDS011;7004;48.206;16.402;2023-08-12T09:15:55;5.70;;;5.20;;
13868;SDS011;7004;48.206;16.402;2023-08-12T09:18:21;6.40;;;4.57;;
13868;SDS011;7004;48.206;16.402;2023-08-12T09:20:53;6.73;;;4.60;;
13868;SDS011;7004;48.206;16.402;2023-08-12T09:23:19;5.10;;;4.53;;
13868;SDS011;7004;48.206;16.402;2023-08-12T09:25:45;5.80;;;4.50;;
13868;SDS011;7004;48.206;16.402;2023-08-12T09:28:11;7.10;;;4.73;;
13868;SDS011;7004;48.206;16.402;2023-08-12T09:30:38;7.50;;;5.13;;
13868;SDS011;7004;48.206;16.402;2023-08-12T09:33:05;4.73;;;4.33;;
13868;SDS011;7004;48.206;16.402;2023-08-12T09:35:37;5.07;;;4.47;;
13868;SDS011;7004;48.206;16.402;2023-08-12T09:38:10;6.00;;;4.53;;
13868;SDS011;7004;48.206;16.402;2023-08-12T09:40:38;6.13;;;4.37;;
13868;SDS011;7004;48.206;16.402;2023-08-12T09:43:05;5.20;;;4.40;;
13868;SDS011;7004;48.206;16.402;2023-08-12T09:45:32;5.23;;;4.50;;
13868;SDS011;7004;48.206;16.402;2023-08-12T09:48:00;4.63;;;4.10;;
13868;SDS011;7004;48.206;16.402;2023-08-12T09:50:26;4.37;;;3.97;;
13868;SDS011;7004;48.206;16.402;2023-08-12T09:52:53;4.13;;;3.70;;
13868;SDS011;7004;48.206;16.402;2023-08-12T09:55:24;5.27;;;4.00;;
13868;SDS011;7004;48.206;16.402;2023-08-12T09:57:51;4.50;;;4.10;;
13868;SDS011;7004;48.206;16.402;2023-08-12T10:00:19;4.00;;;3.60;;
13868;SDS011;7004;48.206;16.402;2023-08-12T10:02:48;4.63;;;3.80;;
13868;SDS011;7004;48.206;16.402;2023-08-12T10:05:24;5.67;;;4.27;;
13868;SDS011;7004;48.206;16.402;2023-08-12T10:07:56;4.73;;;3.90;;
13868;SDS011;7004;48.206;16.402;2023-08-12T10:10:23;4.93;;;3.90;;
13868;SDS011;7004;48.206;16.402;2023-08-12T10:12:50;4.37;;;3.70;;
13868;SDS011;7004;48.206;16.402;2023-08-12T10:15:17;3.90;;;3.60;;
13868;SDS011;7004;48.206;16.402;2023-08-12T10:17:44;3.80;;;3.47;;
13868;SDS011;7004;48.206;16.402;2023-08-12T10:20:17;3.90;;;3.33;;
13868;SDS011;7004;48.206;16.402;2023-08-12T10:22:51;4.53;;;3.13;;
13868;SDS011;7004;48.206;16.402;2023-08-12T10:25:19;4.13;;;3.73;;
13868;SDS011;7004;48.206;16.402;2023-08-12T10:27:48;3.50;;;3.20;;
13868;SDS011;7004;48.206;16.402;2023-08-12T10:30:22;3.50;;;3.20;;
13868;SDS011;7004;48.206;16.402;2023-08-12T10:32:48;3.47;;;3.17;;
13868;SDS011;7004;48.206;16.402;2023-08-12T10:35:15;3.77;;;3.47;;
13868;SDS011;7004;48.206;16.402;2023-08-12T10:37:41;3.27;;;3.03;;
13868;SDS011;7004;48.206;16.402;2023-08-12T10:40:22;3.67;;;3.20;;
13868;SDS011;7004;48.206;16.402;2023-08-12T10:42:48;3.63;;;3.00;;
13868;SDS011;7004;48.206;16.402;2023-08-12T10:45:16;5.83;;;3.30;;
13868;SDS011;7004;48.206;16.402;2023-08-12T10:47:47;3.50;;;3.20;;
13868;SDS011;7004;48.206;16.402;2023-08-12T10:50:34;3.13;;;2.83;;
13868;SDS011;7004;48.206;16.402;2023-08-12T10:53:20;3.10;;;2.90;;
13868;SDS011;7004;48.206;16.402;2023-08-12T10:55:50;3.90;;;2.80;;
13868;SDS011;7004;48.206;16.402;2023-08-12T10:58:23;7.13;;;2.80;;
13868;SDS011;7004;48.206;16.402;2023-08-12T11:00:56;3.53;;;3.10;;
13868;SDS011;7004;48.206;16.402;2023-08-12T11:03:23;4.03;;;2.90;;
13868;SDS011;7004;48.206;16.402;2023-08-12T11:05:49;4.90;;;2.90;;
13868;SDS011;7004;48.206;16.402;2023-08-12T11:08:16;4.70;;;3.20;;
13868;SDS011;7004;48.206;16.402;2023-08-12T11:10:43;3.10;;;2.90;;
13868;SDS011;7004;48.206;16.402;2023-08-12T11:13:09;2.90;;;2.70;;
13868;SDS011;7004;48.206;16.402;2023-08-12T11:15:37;3.77;;;2.93;;
13868;SDS011;7004;48.206;16.402;2023-08-12T11:18:14;4.10;;;3.07;;
13868;SDS011;7004;48.206;16.402;2023-08-12T11:20:43;3.43;;;2.83;;
13868;SDS011;7004;48.206;16.402;2023-08-12T11:23:10;3.30;;;2.80;;
13868;SDS011;7004;48.206;16.402;2023-08-12T11:25:38;3.13;;;2.30;;
13868;SDS011;7004;48.206;16.402;2023-08-12T11:28:06;3.00;;;2.80;;
13868;SDS011;7004;48.206;16.402;2023-08-12T11:30:33;4.00;;;3.07;;
13868;SDS011;7004;48.206;16.402;2023-08-12T11:33:00;5.33;;;3.03;;
13868;SDS011;7004;48.206;16.402;2023-08-12T11:35:28;3.20;;;2.90;;
13868;SDS011;7004;48.206;16.402;2023-08-12T11:37:56;3.10;;;2.90;;
13868;SDS011;7004;48.206;16.402;2023-08-12T11:40:24;3.23;;;2.97;;
13868;SDS011;7004;48.206;16.402;2023-08-12T11:42:52;4.50;;;3.10;;
13868;SDS011;7004;48.206;16.402;2023-08-12T11:45:20;4.90;;;3.10;;
13868;SDS011;7004;48.206;16.402;2023-08-12T11:47:50;3.70;;;2.90;;
13868;SDS011;7004;48.206;16.402;2023-08-12T11:50:24;3.73;;;3.00;;
13868;SDS011;7004;48.206;16.402;2023-08-12T11:52:52;2.77;;;2.57;;
13868;SDS011;7004;48.206;16.402;2023-08-12T11:55:21;3.13;;;2.77;;
13868;SDS011;7004;48.206;16.402;2023-08-12T11:57:49;2.80;;;2.60;;
13868;SDS011;7004;48.206;16.402;2023-08-12T12:00:17;2.67;;;2.47;;
13868;SDS011;7004;48.206;16.402;2023-08-12T12:02:53;3.00;;;2.50;;
13868;SDS011;7004;48.206;16.402;2023-08-12T12:05:22;3.13;;;2.83;;
13868;SDS011;7004;48.206;16.402;2023-08-12T12:07:53;2.73;;;2.53;;
13868;SDS011;7004;48.206;16.402;2023-08-12T12:10:21;3.03;;;2.50;;
13868;SDS011;7004;48.206;16.402;2023-08-12T12:12:56;2.90;;;2.60;;
13868;SDS011;7004;48.206;16.402;2023-08-12T12:15:24;2.50;;;2.30;;
13868;SDS011;7004;48.206;16.402;2023-08-12T12:17:50;2.60;;;2.40;;
13868;SDS011;7004;48.206;16.402;2023-08-12T12:20:18;2.53;;;2.33;;
13868;SDS011;7004;48.206;16.402;2023-08-12T12:22:46;2.17;;;2.03;;
13868;SDS011;7004;48.206;16.402;2023-08-12T12:25:14;2.97;;;2.37;;
13868;SDS011;7004;48.206;16.402;2023-08-12T12:27:45;2.33;;;2.13;;
13868;SDS011;7004;48.206;16.402;2023-08-12T12:30:13;4.10;;;2.50;;
13868;SDS011;7004;48.206;16.402;2023-08-12T12:32:41;2.20;;;2.10;;
13868;SDS011;7004;48.206;16.402;2023-08-12T12:35:08;4.30;;;2.37;;
13868;SDS011;7004;48.206;16.402;2023-08-12T12:37:35;2.70;;;2.50;;
13868;SDS011;7004;48.206;16.402;2023-08-12T12:40:02;2.60;;;2.40;;
13868;SDS011;7004;48.206;16.402;2023-08-12T12:42:31;2.20;;;2.10;;
13868;SDS011;7004;48.206;16.402;2023-08-12T12:44:57;2.47;;;2.27;;
13868;SDS011;7004;48.206;16.402;2023-08-12T12:47:23;2.30;;;2.10;;
13868;SDS011;7004;48.206;16.402;2023-08-12T12:49:49;2.20;;;2.10;;
13868;SDS011;7004;48.206;16.402;2023-08-12T12:52:15;2.37;;;2.17;;
13868;SDS011;7004;48.206;16.402;2023-08-12T12:54:41;4.07;;;2.20;;
13868;SDS011;7004;48.206;16.402;2023-08-12T12:57:08;2.40;;;2.20;;
13868;SDS011;7004;48.206;16.402;2023-08-12T12:59:34;3.37;;;2.13;;
13868;SDS011;7004;48.206;16.402;2023-08-12T13:02:00;2.57;;;2.03;;
13868;SDS011;7004;48.206;16.402;2023-08-12T13:04:26;2.07;;;1.90;;
13868;SDS011;7004;48.206;16.402;2023-08-12T13:06:53;2.57;;;2.37;;
13868;SDS011;7004;48.206;16.402;2023-08-12T13:09:19;2.60;;;1.97;;
13868;SDS011;7004;48.206;16.402;2023-08-12T13:11:45;2.67;;;2.13;;
13868;SDS011;7004;48.206;16.402;2023-08-12T13:14:11;2.00;;;1.90;;
13868;SDS011;7004;48.206;16.402;2023-08-12T13:16:37;2.03;;;1.80;;
13868;SDS011;7004;48.206;16.402;2023-08-12T13:19:03;2.00;;;1.90;;
13868;SDS011;7004;48.206;16.402;2023-08-12T13:21:29;2.30;;;1.90;;
13868;SDS011;7004;48.206;16.402;2023-08-12T13:23:56;4.40;;;1.70;;
13868;SDS011;7004;48.206;16.402;2023-08-12T13:26:23;2.77;;;2.00;;
13868;SDS011;7004;48.206;16.402;2023-08-12T13:28:51;2.30;;;2.10;;
13868;SDS011;7004;48.206;16.402;2023-08-12T13:31:18;2.27;;;1.90;;
13868;SDS011;7004;48.206;16.402;2023-08-12T13:33:44;2.33;;;2.13;;
13868;SDS011;7004;48.206;16.402;2023-08-12T13:36:11;2.20;;;2.00;;
13868;SDS011;7004;48.206;16.402;2023-08-12T13:38:37;1.90;;;1.80;;
13868;SDS011;7004;48.206;16.402;2023-08-12T13:41:05;2.87;;;2.30;;
13868;SDS011;7004;48.206;16.402;2023-08-12T13:43:31;2.07;;;1.97;;
13868;SDS011;7004;48.206;16.402;2023-08-12T13:45:57;2.20;;;2.07;;
13868;SDS011;7004;48.206;16.402;2023-08-12T13:48:25;2.30;;;2.10;;
13868;SDS011;7004;48.206;16.402;2023-08-12T13:50:52;2.30;;;2.10;;
13868;SDS011;7004;48.206;16.402;2023-08-12T13:53:19;3.50;;;2.07;;
13868;SDS011;7004;48.206;16.402;2023-08-12T13:55:46;2.50;;;2.30;;
13868;SDS011;7004;48.206;16.402;2023-08-12T13:58:13;2.53;;;2.33;;
13868;SDS011;7004;48.206;16.402;2023-08-12T14:00:39;3.33;;;2.23;;
13868;SDS011;7004;48.206;16.402;2023-08-12T14:03:05;2.33;;;2.13;;
13868;SDS011;7004;48.206;16.402;2023-08-12T14:05:31;2.37;;;2.03;;
13868;SDS011;7004;48.206;16.402;2023-08-12T14:07:57;2.63;;;2.20;;
13868;SDS011;7004;48.206;16.402;2023-08-12T14:10:24;2.43;;;2.23;;
13868;SDS011;7004;48.206;16.402;2023-08-12T14:12:50;2.23;;;2.03;;
13868;SDS011;7004;48.206;16.402;2023-08-12T14:15:16;2.30;;;2.10;;
13868;SDS011;7004;48.206;16.402;2023-08-12T14:17:42;2.87;;;2.40;;
13868;SDS011;7004;48.206;16.402;2023-08-12T14:20:08;2.33;;;2.10;;
13868;SDS011;7004;48.206;16.402;2023-08-12T14:22:35;2.60;;;2.30;;
13868;SDS011;7004;48.206;16.402;2023-08-12T14:25:02;2.33;;;2.13;;
13868;SDS011;7004;48.206;16.402;2023-08-12T14:27:29;2.27;;;2.07;;
13868;SDS011;7004;48.206;16.402;2023-08-12T14:29:57;2.53;;;2.20;;
13868;SDS011;7004;48.206;16.402;2023-08-12T14:32:23;2.63;;;2.10;;
13868;SDS011;7004;48.206;16.402;2023-08-12T14:34:49;2.50;;;2.30;;
13868;SDS011;7004;48.206;16.402;2023-08-12T14:37:15;4.67;;;2.57;;
13868;SDS011;7004;48.206;16.402;2023-08-12T14:39:41;2.60;;;2.30;;
13868;SDS011;7004;48.206;16.402;2023-08-12T14:42:08;2.57;;;2.10;;
13868;SDS011;7004;48.206;16.402;2023-08-12T14:44:35;4.60;;;2.33;;
13868;SDS011;7004;48.206;16.402;2023-08-12T14:47:03;2.40;;;2.20;;
13868;SDS011;7004;48.206;16.402;2023-08-12T14:49:29;2.30;;;2.10;;
13868;SDS011;7004;48.206;16.402;2023-08-12T14:51:55;2.43;;;2.23;;